Gibbsboro, New Jersey
Current Conditions -  °F | °C
As of 12:54 AM on Tuesday 27 Jan 2015 (Local Time) from KVAY Reporting Station
Light Snow Light Snow  
Wind Chill: 14°   Ceiling: 2100
Heat Index: 26°   Visibility: 4mi
Dew Point: 19°   Wind: 15mph
Humidity: 75%   Direction: 10°N
Pressure: 29.68"   Gusts: 23mph
Location:  39.84°N, 74.96°W
Report Text: KVAY 270554Z AUTO 01013G20KT 4SM -SN BKN021 BKN030 OVC040 M03/M07 A2968 RMK AO2 SNB45 SLP050 P0000 60000 T10331072 11028 21033 56010
Loading
Personal Weather Stations






























Interactive Weather Map New forecast layout! Learn more

10-Day Weather Forecast

Advertisements
Track Severe Weather on mobile